createdAt,value
2022-12-25T00:01:52.696Z,44.05
2022-12-25T00:04:55.083Z,44.78
2022-12-25T00:07:57.147Z,47.13
2022-12-25T00:11:05.905Z,39.13
2022-12-25T00:14:07.970Z,38.65
2022-12-25T00:17:09.941Z,39.03
2022-12-25T00:20:12.015Z,38.28
2022-12-25T00:23:15.266Z,40.75
2022-12-25T00:26:17.973Z,39.42
2022-12-25T00:29:20.269Z,41.25
2022-12-25T00:32:22.382Z,44.75
2022-12-25T00:35:24.269Z,42.58
2022-12-25T00:38:26.849Z,45.80
2022-12-25T00:41:47.706Z,46.13
2022-12-25T00:44:51.972Z,46.55
2022-12-25T00:47:54.284Z,47.42
2022-12-25T00:50:58.745Z,44.67
2022-12-25T00:54:00.944Z,47.50
2022-12-25T00:57:03.499Z,45.45
2022-12-25T01:00:06.064Z,46.97
2022-12-25T01:03:10.371Z,45.08
2022-12-25T01:06:13.283Z,49.40
2022-12-25T01:09:34.984Z,49.58
2022-12-25T01:12:40.150Z,47.63
2022-12-25T01:15:42.507Z,48.03
2022-12-25T01:18:47.006Z,48.17
2022-12-25T01:21:48.997Z,48.10
2022-12-25T01:24:51.120Z,49.20
2022-12-25T01:27:53.157Z,49.30
2022-12-25T01:30:55.149Z,45.75
2022-12-25T01:33:57.337Z,43.45
2022-12-25T01:36:59.491Z,42.05
2022-12-25T01:40:02.342Z,42.97
2022-12-25T01:43:05.226Z,42.33
2022-12-25T01:46:07.463Z,39.92
2022-12-25T01:49:25.185Z,41.85
2022-12-25T01:52:27.390Z,39.03
2022-12-25T01:55:30.654Z,37.90
2022-12-25T01:58:33.578Z,38.85
2022-12-25T02:01:36.178Z,35.72
2022-12-25T02:04:52.332Z,41.85
2022-12-25T02:07:55.962Z,41.35
2022-12-25T02:10:58.839Z,43.97
2022-12-25T02:14:01.848Z,46.00
2022-12-25T02:17:39.435Z,45.75
2022-12-25T02:21:00.147Z,44.35
2022-12-25T02:24:40.255Z,41.63
2022-12-25T02:28:04.269Z,43.90
2022-12-25T02:31:39.194Z,46.03
2022-12-25T02:34:44.404Z,44.35
2022-12-25T02:37:56.077Z,40.88
2022-12-25T02:41:02.535Z,41.38
2022-12-25T02:44:30.884Z,43.15
2022-12-25T02:47:53.022Z,42.20
2022-12-25T02:51:15.784Z,42.30
2022-12-25T02:54:40.993Z,38.42
2022-12-25T02:58:07.580Z,38.00
2022-12-25T03:01:37.543Z,37.75
2022-12-25T03:04:58.139Z,36.55
2022-12-25T03:08:05.172Z,38.47
2022-12-25T03:11:29.197Z,34.25
2022-12-25T03:14:49.658Z,31.15
2022-12-25T03:17:54.907Z,32.97
2022-12-25T03:21:18.229Z,31.40
2022-12-25T03:24:40.183Z,28.88
2022-12-25T03:27:58.174Z,28.38
2022-12-25T03:34:53.088Z,25.95
2022-12-25T03:38:25.793Z,26.50
2022-12-25T03:42:06.359Z,25.05
2022-12-25T03:45:31.519Z,26.42
2022-12-25T03:48:58.490Z,25.77
2022-12-25T03:52:21.839Z,24.05
2022-12-25T03:55:45.159Z,24.42
2022-12-25T03:59:21.111Z,22.13
2022-12-25T04:02:44.644Z,22.25
2022-12-25T04:06:05.352Z,24.10
2022-12-25T04:09:26.113Z,22.52
2022-12-25T04:12:46.877Z,19.58
2022-12-25T04:16:07.788Z,18.98
2022-12-25T04:19:28.885Z,19.17
2022-12-25T04:22:49.520Z,17.73
2022-12-25T04:26:10.207Z,17.50
2022-12-25T04:29:30.848Z,16.95
2022-12-25T04:32:51.812Z,17.20
2022-12-25T04:36:12.977Z,15.18
2022-12-25T04:39:15.008Z,14.77
2022-12-25T04:42:18.075Z,16.27
2022-12-25T04:45:20.471Z,12.68
2022-12-25T04:48:23.059Z,12.00
2022-12-25T04:51:25.959Z,11.48
2022-12-25T04:54:28.291Z,11.30
2022-12-25T04:57:30.342Z,10.02
2022-12-25T05:00:32.382Z,8.10
2022-12-25T05:03:34.978Z,9.75
2022-12-25T05:06:37.122Z,7.90
2022-12-25T05:09:41.955Z,9.05
2022-12-25T05:12:44.558Z,9.60
2022-12-25T05:15:46.956Z,8.63
2022-12-25T05:18:51.136Z,9.13
2022-12-25T05:21:55.176Z,8.15
2022-12-25T05:24:57.291Z,7.80
2022-12-25T05:27:59.364Z,7.13
2022-12-25T05:31:01.415Z,7.35
2022-12-25T05:34:03.584Z,7.05
2022-12-25T05:37:05.796Z,5.72
2022-12-25T05:40:11.129Z,4.65
2022-12-25T05:43:13.225Z,4.85
2022-12-25T05:46:15.345Z,4.50
2022-12-25T05:49:17.388Z,3.92
2022-12-25T05:52:19.478Z,4.43
2022-12-25T05:55:21.584Z,4.50
2022-12-25T05:58:23.716Z,3.13
2022-12-25T06:01:28.866Z,3.88
2022-12-25T06:04:31.030Z,3.22
2022-12-25T06:07:33.312Z,4.13
2022-12-25T06:10:36.559Z,3.97
2022-12-25T06:13:41.542Z,3.75
2022-12-25T06:16:43.750Z,3.83
2022-12-25T06:19:46.174Z,3.58
2022-12-25T06:22:49.508Z,4.20
2022-12-25T06:25:51.583Z,5.38
2022-12-25T06:28:53.784Z,4.90
2022-12-25T06:31:57.546Z,3.33
2022-12-25T06:34:59.676Z,3.97
2022-12-25T06:38:07.032Z,3.60
2022-12-25T06:44:14.166Z,4.70
2022-12-25T06:47:16.243Z,4.22
2022-12-25T06:50:18.621Z,3.80
2022-12-25T06:53:20.721Z,4.25
2022-12-25T06:56:25.561Z,4.78
2022-12-25T06:59:27.608Z,6.15
2022-12-25T07:02:30.091Z,4.05
2022-12-25T07:05:32.162Z,4.95
2022-12-25T07:08:36.660Z,4.50
2022-12-25T07:11:38.778Z,4.38
2022-12-25T07:14:42.083Z,4.82
2022-12-25T07:17:44.566Z,4.18
2022-12-25T07:20:46.827Z,4.80
2022-12-25T07:23:50.212Z,4.47
2022-12-25T07:26:53.667Z,4.18
2022-12-25T07:29:55.861Z,4.53
2022-12-25T07:32:57.850Z,4.80
2022-12-25T07:36:01.081Z,5.88
2022-12-25T07:39:05.519Z,4.70
2022-12-25T07:42:07.626Z,3.67
2022-12-25T07:45:13.211Z,4.40
2022-12-25T07:48:16.935Z,5.50
2022-12-25T07:51:19.273Z,3.92
2022-12-25T07:54:21.615Z,6.78
2022-12-25T07:57:26.972Z,4.50
2022-12-25T08:00:32.843Z,4.82
2022-12-25T08:03:35.739Z,4.78
2022-12-25T08:06:41.053Z,3.38
2022-12-25T08:09:45.351Z,4.40
2022-12-25T08:12:47.488Z,3.70
2022-12-25T08:15:49.611Z,3.85
2022-12-25T08:18:51.867Z,4.25
2022-12-25T08:21:53.913Z,6.05
2022-12-25T08:24:56.008Z,4.05
2022-12-25T08:28:01.500Z,4.78
2022-12-25T08:31:18.097Z,5.07
2022-12-25T08:34:20.571Z,4.97
2022-12-25T08:37:22.677Z,4.22
2022-12-25T08:40:26.356Z,3.78
2022-12-25T08:53:54.164Z,4.47
2022-12-25T09:17:19.457Z,4.28
2022-12-25T09:24:19.497Z,4.88
2022-12-25T09:27:53.491Z,5.03
2022-12-25T09:30:55.787Z,5.32
2022-12-25T09:33:58.861Z,5.03
2022-12-25T09:37:01.245Z,5.45
2022-12-25T09:40:04.399Z,5.57
2022-12-25T09:43:06.391Z,3.95
2022-12-25T09:46:15.358Z,4.75
2022-12-25T09:49:39.294Z,4.50
2022-12-25T09:52:52.797Z,5.13
2022-12-25T09:56:12.924Z,4.78
2022-12-25T09:59:25.748Z,4.75
2022-12-25T10:02:34.134Z,4.68
2022-12-25T10:05:49.967Z,5.68
2022-12-25T10:09:03.716Z,4.78
2022-12-25T10:12:27.361Z,5.22
2022-12-25T10:16:07.548Z,6.80
2022-12-25T10:19:34.814Z,7.07
2022-12-25T10:23:00.515Z,6.50
2022-12-25T10:26:17.376Z,6.32
2022-12-25T10:29:20.177Z,5.78
2022-12-25T10:32:23.164Z,5.85
2022-12-25T10:35:28.139Z,6.18
2022-12-25T10:38:30.159Z,6.03
2022-12-25T10:41:53.976Z,8.00
2022-12-25T10:45:01.156Z,7.35
2022-12-25T10:48:08.194Z,6.95
2022-12-25T10:51:13.965Z,7.97
2022-12-25T10:54:28.964Z,5.93
2022-12-25T10:57:48.544Z,6.55
2022-12-25T11:00:58.667Z,7.20
2022-12-25T11:04:01.628Z,6.95
2022-12-25T11:07:08.780Z,6.78
2022-12-25T11:10:35.403Z,6.10
2022-12-25T11:14:03.656Z,5.88
2022-12-25T11:17:10.670Z,6.63
2022-12-25T11:20:21.352Z,5.47
2022-12-25T11:23:26.672Z,6.45
2022-12-25T11:26:36.757Z,7.00
2022-12-25T11:29:53.006Z,5.97
2022-12-25T11:32:58.912Z,6.75
2022-12-25T11:36:07.393Z,6.45
2022-12-25T11:42:34.655Z,6.72
2022-12-25T11:45:46.586Z,7.03
2022-12-25T11:48:58.317Z,6.32
2022-12-25T11:52:00.740Z,7.05
2022-12-25T11:55:11.199Z,7.13
2022-12-25T11:58:28.781Z,7.65
2022-12-25T12:01:57.973Z,7.85
2022-12-25T12:05:21.713Z,8.43
2022-12-25T12:08:23.886Z,7.57
2022-12-25T12:11:53.513Z,7.63
2022-12-25T12:18:30.392Z,7.18
2022-12-25T12:21:35.767Z,5.47
2022-12-25T12:24:43.818Z,7.45
2022-12-25T12:27:46.283Z,5.93
2022-12-25T12:31:03.849Z,6.50
2022-12-25T12:34:06.586Z,6.13
2022-12-25T12:37:21.350Z,7.03
2022-12-25T12:40:38.088Z,7.53
2022-12-25T12:44:07.781Z,6.32
2022-12-25T12:47:48.406Z,7.05
2022-12-25T12:51:06.585Z,6.82
2022-12-25T12:54:25.342Z,7.28
2022-12-25T12:57:32.850Z,5.60
2022-12-25T13:00:52.557Z,6.18
2022-12-25T13:04:30.094Z,7.22
2022-12-25T13:07:56.239Z,5.95
2022-12-25T13:11:21.720Z,6.22
2022-12-25T13:14:33.293Z,5.90
2022-12-25T13:17:45.254Z,6.00
2022-12-25T13:20:57.491Z,6.78
2022-12-25T13:24:10.781Z,6.13
2022-12-25T13:27:29.281Z,5.90
2022-12-25T13:30:31.311Z,6.18
2022-12-25T13:33:46.399Z,6.70
2022-12-25T13:36:51.004Z,5.75
2022-12-25T13:39:53.057Z,6.07
2022-12-25T13:42:59.669Z,6.50
2022-12-25T13:46:01.843Z,5.82
2022-12-25T13:49:14.313Z,5.63
2022-12-25T13:52:21.329Z,6.18
2022-12-25T13:55:30.689Z,4.13
2022-12-25T13:58:39.576Z,4.70
2022-12-25T14:01:45.687Z,4.63
2022-12-25T14:04:47.787Z,3.15
2022-12-25T14:07:56.277Z,4.20
2022-12-25T14:14:15.182Z,6.30
2022-12-25T14:17:24.993Z,6.72
2022-12-25T14:20:43.253Z,6.05
2022-12-25T14:23:49.407Z,6.33
2022-12-25T14:26:59.922Z,6.03
2022-12-25T14:30:04.305Z,5.55
2022-12-25T14:33:15.904Z,5.90
2022-12-25T14:36:29.232Z,5.30
2022-12-25T14:39:39.241Z,6.25
2022-12-25T14:42:42.295Z,5.93
2022-12-25T14:46:03.144Z,5.90
2022-12-25T14:49:28.564Z,5.85
2022-12-25T14:52:46.446Z,7.25
2022-12-25T14:55:59.352Z,6.35
2022-12-25T14:59:03.012Z,6.88
2022-12-25T15:02:10.569Z,7.65
2022-12-25T15:05:38.353Z,7.35
2022-12-25T15:08:40.428Z,6.45
2022-12-25T15:11:44.584Z,6.50
2022-12-25T15:14:46.767Z,6.00
2022-12-25T15:17:50.688Z,7.38
2022-12-25T15:20:56.519Z,7.07
2022-12-25T15:24:00.136Z,6.88
2022-12-25T15:27:03.429Z,8.98
2022-12-25T15:30:10.196Z,9.50
2022-12-25T15:33:14.790Z,8.37
2022-12-25T15:36:24.260Z,9.27
2022-12-25T15:39:26.659Z,7.90
2022-12-25T15:42:30.858Z,9.23
2022-12-25T15:45:33.183Z,9.57
2022-12-25T15:48:40.034Z,8.77
2022-12-25T15:51:43.485Z,7.20
2022-12-25T15:54:45.795Z,8.38
2022-12-25T15:57:48.856Z,7.88
2022-12-25T16:00:52.925Z,8.48
2022-12-25T16:04:16.564Z,7.97
2022-12-25T16:07:37.946Z,10.07
2022-12-25T16:11:16.441Z,9.10
2022-12-25T16:14:22.252Z,8.90
2022-12-25T16:17:27.227Z,7.78
2022-12-25T16:20:32.854Z,7.80
2022-12-25T16:23:34.884Z,8.15
2022-12-25T16:26:48.427Z,8.98
2022-12-25T16:29:58.858Z,9.00
2022-12-25T16:33:13.748Z,9.02
2022-12-25T16:36:26.748Z,9.70
2022-12-25T16:39:29.484Z,9.55
2022-12-25T16:42:31.592Z,10.45
2022-12-25T16:45:45.570Z,9.75
2022-12-25T16:48:49.589Z,9.13
2022-12-25T16:51:52.027Z,10.75
2022-12-25T16:54:54.160Z,9.60
2022-12-25T16:57:57.006Z,8.85
2022-12-25T17:01:13.086Z,8.68
2022-12-25T17:04:15.717Z,8.82
2022-12-25T17:07:18.392Z,10.27
2022-12-25T17:10:21.864Z,9.38
2022-12-25T17:13:27.149Z,7.95
2022-12-25T17:16:36.038Z,9.25
2022-12-25T17:19:39.196Z,9.93
2022-12-25T17:22:41.364Z,8.68
2022-12-25T17:25:43.417Z,9.50
2022-12-25T17:28:52.538Z,9.35
2022-12-25T17:31:56.137Z,8.93
2022-12-25T17:34:58.413Z,9.85
2022-12-25T17:38:02.131Z,10.82
2022-12-25T17:41:06.898Z,10.48
2022-12-25T17:44:10.023Z,11.27
2022-12-25T17:47:12.656Z,11.70
2022-12-25T17:50:22.789Z,11.15
2022-12-25T17:53:39.526Z,11.35
2022-12-25T17:56:57.105Z,9.15
2022-12-25T18:04:15.960Z,10.65
2022-12-25T18:07:29.531Z,15.88
2022-12-25T18:10:38.963Z,9.38
2022-12-25T18:13:43.634Z,10.38
2022-12-25T18:16:47.327Z,8.45
2022-12-25T18:19:51.487Z,8.38
2022-12-25T18:22:53.571Z,8.88
2022-12-25T18:25:56.114Z,7.65
2022-12-25T18:28:58.691Z,8.18
2022-12-25T18:32:01.371Z,8.32
2022-12-25T18:35:03.906Z,8.60
2022-12-25T18:38:11.688Z,8.40
2022-12-25T18:41:14.687Z,7.90
2022-12-25T18:44:17.023Z,8.70
2022-12-25T18:47:19.311Z,9.00
2022-12-25T18:50:21.664Z,7.85
2022-12-25T18:53:24.131Z,7.65
2022-12-25T18:56:26.117Z,9.55
2022-12-25T18:59:29.885Z,8.23
2022-12-25T19:02:32.076Z,8.00
2022-12-25T19:05:37.165Z,8.20
2022-12-25T19:08:39.268Z,8.63
2022-12-25T19:11:46.594Z,7.55
2022-12-25T19:14:49.704Z,8.13
2022-12-25T19:17:51.884Z,7.07
2022-12-25T19:20:53.964Z,5.97
2022-12-25T19:23:56.243Z,6.88
2022-12-25T19:26:58.344Z,6.65
2022-12-25T19:30:00.477Z,8.13
2022-12-25T19:33:02.587Z,7.05
2022-12-25T19:36:07.607Z,6.82
2022-12-25T19:39:11.847Z,7.00
2022-12-25T19:42:16.149Z,7.18
2022-12-25T19:45:18.299Z,4.75
2022-12-25T19:48:25.153Z,6.38
2022-12-25T19:51:29.599Z,7.47
2022-12-25T19:54:31.728Z,7.15
2022-12-25T19:57:36.808Z,7.20
2022-12-25T20:00:40.563Z,8.05
2022-12-25T20:03:46.744Z,6.32
2022-12-25T20:06:48.984Z,6.28
2022-12-25T20:09:51.113Z,6.35
2022-12-25T20:13:02.148Z,6.75
2022-12-25T20:16:06.362Z,6.82
2022-12-25T20:19:10.052Z,6.20
2022-12-25T20:22:12.447Z,6.95
2022-12-25T20:25:14.559Z,6.47
2022-12-25T20:28:16.651Z,6.80
2022-12-25T20:31:22.747Z,6.43
2022-12-25T20:34:25.525Z,6.53
2022-12-25T20:37:27.544Z,6.90
2022-12-25T20:40:37.578Z,7.05
2022-12-25T20:43:52.516Z,6.85
2022-12-25T20:46:55.034Z,7.65
2022-12-25T20:49:57.856Z,7.35
2022-12-25T20:53:00.004Z,7.15
2022-12-25T20:56:03.957Z,7.70
2022-12-25T20:59:06.222Z,6.05
2022-12-25T21:02:10.990Z,7.75
2022-12-25T21:05:33.935Z,6.50
2022-12-25T21:08:37.283Z,7.03
2022-12-25T21:11:39.599Z,7.18
2022-12-25T21:14:41.659Z,7.97
2022-12-25T21:17:43.800Z,7.03
2022-12-25T21:20:51.104Z,6.68
2022-12-25T21:23:55.449Z,6.93
2022-12-25T21:26:57.489Z,6.32
2022-12-25T21:29:59.574Z,7.45
2022-12-25T21:33:35.448Z,6.10
2022-12-25T21:36:40.049Z,7.20
2022-12-25T21:39:43.728Z,7.03
2022-12-25T21:42:46.001Z,6.30
2022-12-25T21:45:48.055Z,5.93
2022-12-25T21:48:50.674Z,6.55
2022-12-25T21:52:07.912Z,5.95
2022-12-25T21:55:10.149Z,5.45
2022-12-25T21:58:12.912Z,6.55
2022-12-25T22:01:18.094Z,7.55
2022-12-25T22:04:22.801Z,7.75
2022-12-25T22:07:27.206Z,8.10
2022-12-25T22:10:31.169Z,7.32
2022-12-25T22:13:51.877Z,7.10
2022-12-25T22:17:12.527Z,5.93
2022-12-25T22:20:31.652Z,7.40
2022-12-25T22:23:33.744Z,6.18
2022-12-25T22:26:36.029Z,7.05
2022-12-25T22:29:38.278Z,7.35
2022-12-25T22:32:41.072Z,6.72
2022-12-25T22:35:43.372Z,8.20
2022-12-25T22:38:45.470Z,8.15
2022-12-25T22:41:48.487Z,7.32
2022-12-25T22:44:50.619Z,6.78
2022-12-25T22:47:52.617Z,6.45
2022-12-25T22:50:54.599Z,7.60
2022-12-25T22:54:03.405Z,6.38
2022-12-25T22:57:06.352Z,7.63
2022-12-25T23:00:09.092Z,6.63
2022-12-25T23:03:11.300Z,6.30
2022-12-25T23:06:13.424Z,5.85
2022-12-25T23:09:24.373Z,6.32
2022-12-25T23:12:45.674Z,6.38
2022-12-25T23:15:48.196Z,6.43
2022-12-25T23:19:09.100Z,6.13
2022-12-25T23:22:31.059Z,5.93
2022-12-25T23:25:53.895Z,6.32
2022-12-25T23:29:14.450Z,7.00
2022-12-25T23:32:24.838Z,5.68
2022-12-25T23:35:27.048Z,5.32
2022-12-25T23:38:29.097Z,6.70
2022-12-25T23:41:31.350Z,6.13
2022-12-25T23:44:34.876Z,6.15
2022-12-25T23:47:36.955Z,5.53
2022-12-25T23:50:39.063Z,5.55
2022-12-25T23:53:41.183Z,5.80
2022-12-25T23:56:43.929Z,5.47
2022-12-25T23:59:46.243Z,4.80
